sensor_id;sensor_type;location;lat;lon;timestamp;temperature;humidity
57833;DHT22;43667;53.036;6.740;2022-10-17T00:00:46;11.30;99.90
57833;DHT22;43667;53.036;6.740;2022-10-17T00:03:12;11.30;99.90
57833;DHT22;43667;53.036;6.740;2022-10-17T00:05:44;11.30;99.90
57833;DHT22;43667;53.036;6.740;2022-10-17T00:08:12;11.30;99.90
57833;DHT22;43667;53.036;6.740;2022-10-17T00:10:38;11.30;99.90
57833;DHT22;43667;53.036;6.740;2022-10-17T00:13:04;11.30;99.90
57833;DHT22;43667;53.036;6.740;2022-10-17T00:15:30;11.30;99.90
57833;DHT22;43667;53.036;6.740;2022-10-17T00:17:55;11.30;99.90
57833;DHT22;43667;53.036;6.740;2022-10-17T00:20:21;11.30;99.90
57833;DHT22;43667;53.036;6.740;2022-10-17T00:22:46;11.30;99.90
57833;DHT22;43667;53.036;6.740;2022-10-17T00:25:12;11.40;99.90
57833;DHT22;43667;53.036;6.740;2022-10-17T00:27:39;11.40;99.90
57833;DHT22;43667;53.036;6.740;2022-10-17T00:30:08;11.50;99.90
57833;DHT22;43667;53.036;6.740;2022-10-17T00:32:34;11.40;99.90
57833;DHT22;43667;53.036;6.740;2022-10-17T00:35:00;11.50;99.90
57833;DHT22;43667;53.036;6.740;2022-10-17T00:37:26;11.50;99.90
57833;DHT22;43667;53.036;6.740;2022-10-17T00:39:52;11.60;99.90
57833;DHT22;43667;53.036;6.740;2022-10-17T00:42:18;11.60;99.90
57833;DHT22;43667;53.036;6.740;2022-10-17T00:47:15;11.70;99.90
57833;DHT22;43667;53.036;6.740;2022-10-17T00:49:41;11.70;99.90
57833;DHT22;43667;53.036;6.740;2022-10-17T00:52:14;11.70;99.90
57833;DHT22;43667;53.036;6.740;2022-10-17T00:54:48;11.70;99.90
57833;DHT22;43667;53.036;6.740;2022-10-17T00:57:14;11.70;99.90
57833;DHT22;43667;53.036;6.740;2022-10-17T00:59:42;11.70;99.90
57833;DHT22;43667;53.036;6.740;2022-10-17T01:02:11;11.80;99.90
57833;DHT22;43667;53.036;6.740;2022-10-17T01:04:40;11.80;99.90
57833;DHT22;43667;53.036;6.740;2022-10-17T01:07:06;11.80;99.90
57833;DHT22;43667;53.036;6.740;2022-10-17T01:09:33;11.80;99.90
57833;DHT22;43667;53.036;6.740;2022-10-17T01:15:03;11.90;99.90
57833;DHT22;43667;53.036;6.740;2022-10-17T01:17:39;11.90;99.90
57833;DHT22;43667;53.036;6.740;2022-10-17T01:20:33;12.00;99.90
57833;DHT22;43667;53.036;6.740;2022-10-17T01:25:53;12.00;99.90
57833;DHT22;43667;53.036;6.740;2022-10-17T01:31:20;12.00;99.90
57833;DHT22;43667;53.036;6.740;2022-10-17T01:34:04;12.00;99.90
57833;DHT22;43667;53.036;6.740;2022-10-17T01:37:04;12.10;99.90
57833;DHT22;43667;53.036;6.740;2022-10-17T01:39:41;12.00;99.90
57833;DHT22;43667;53.036;6.740;2022-10-17T01:45:05;12.10;99.90
57833;DHT22;43667;53.036;6.740;2022-10-17T01:47:32;12.10;99.90
57833;DHT22;43667;53.036;6.740;2022-10-17T01:50:19;12.10;99.90
57833;DHT22;43667;53.036;6.740;2022-10-17T01:52:56;12.10;99.90
57833;DHT22;43667;53.036;6.740;2022-10-17T01:55:32;12.20;99.90
57833;DHT22;43667;53.036;6.740;2022-10-17T01:58:08;12.20;99.90
57833;DHT22;43667;53.036;6.740;2022-10-17T02:00:35;12.20;99.90
57833;DHT22;43667;53.036;6.740;2022-10-17T02:03:05;12.10;99.90
57833;DHT22;43667;53.036;6.740;2022-10-17T02:05:36;12.20;99.90
57833;DHT22;43667;53.036;6.740;2022-10-17T02:08:02;12.20;99.90
57833;DHT22;43667;53.036;6.740;2022-10-17T02:10:43;12.20;99.90
57833;DHT22;43667;53.036;6.740;2022-10-17T02:13:33;12.20;99.90
57833;DHT22;43667;53.036;6.740;2022-10-17T02:19:13;12.20;99.90
57833;DHT22;43667;53.036;6.740;2022-10-17T02:21:58;12.10;99.90
57833;DHT22;43667;53.036;6.740;2022-10-17T02:24:51;12.10;99.90
57833;DHT22;43667;53.036;6.740;2022-10-17T02:30:45;12.10;99.90
57833;DHT22;43667;53.036;6.740;2022-10-17T02:33:34;12.10;99.90
57833;DHT22;43667;53.036;6.740;2022-10-17T02:36:02;12.10;99.90
57833;DHT22;43667;53.036;6.740;2022-10-17T02:38:29;12.10;99.90
57833;DHT22;43667;53.036;6.740;2022-10-17T02:40:56;12.10;99.90
57833;DHT22;43667;53.036;6.740;2022-10-17T02:43:22;12.10;99.90
57833;DHT22;43667;53.036;6.740;2022-10-17T02:45:49;12.10;99.90
57833;DHT22;43667;53.036;6.740;2022-10-17T02:48:41;12.00;99.90
57833;DHT22;43667;53.036;6.740;2022-10-17T02:56:36;12.00;99.90
57833;DHT22;43667;53.036;6.740;2022-10-17T02:59:05;12.00;99.90
57833;DHT22;43667;53.036;6.740;2022-10-17T03:01:34;12.00;99.90
57833;DHT22;43667;53.036;6.740;2022-10-17T03:04:08;12.00;99.90
57833;DHT22;43667;53.036;6.740;2022-10-17T03:06:34;12.00;99.90
57833;DHT22;43667;53.036;6.740;2022-10-17T03:09:00;12.00;99.90
57833;DHT22;43667;53.036;6.740;2022-10-17T03:11:26;12.00;99.90
57833;DHT22;43667;53.036;6.740;2022-10-17T03:13:51;12.00;99.90
57833;DHT22;43667;53.036;6.740;2022-10-17T03:16:17;12.10;99.90
57833;DHT22;43667;53.036;6.740;2022-10-17T03:18:42;12.10;99.90
57833;DHT22;43667;53.036;6.740;2022-10-17T03:21:08;12.10;99.90
57833;DHT22;43667;53.036;6.740;2022-10-17T03:23:33;12.10;99.90
57833;DHT22;43667;53.036;6.740;2022-10-17T03:26:05;12.10;99.90
57833;DHT22;43667;53.036;6.740;2022-10-17T03:28:32;12.10;99.90
57833;DHT22;43667;53.036;6.740;2022-10-17T03:30:57;12.10;99.90
57833;DHT22;43667;53.036;6.740;2022-10-17T03:33:23;12.10;99.90
57833;DHT22;43667;53.036;6.740;2022-10-17T03:35:49;12.10;99.90
57833;DHT22;43667;53.036;6.740;2022-10-17T03:38:15;12.10;99.90
57833;DHT22;43667;53.036;6.740;2022-10-17T03:40:40;12.10;99.90
57833;DHT22;43667;53.036;6.740;2022-10-17T03:43:06;12.20;99.90
57833;DHT22;43667;53.036;6.740;2022-10-17T03:45:31;12.20;99.90
57833;DHT22;43667;53.036;6.740;2022-10-17T03:47:58;12.20;99.90
57833;DHT22;43667;53.036;6.740;2022-10-17T03:50:24;12.20;99.90
57833;DHT22;43667;53.036;6.740;2022-10-17T03:52:49;12.20;99.90
57833;DHT22;43667;53.036;6.740;2022-10-17T03:55:15;12.20;99.90
57833;DHT22;43667;53.036;6.740;2022-10-17T03:57:41;12.20;99.90
57833;DHT22;43667;53.036;6.740;2022-10-17T04:00:07;12.20;99.90
57833;DHT22;43667;53.036;6.740;2022-10-17T04:02:33;12.20;99.90
57833;DHT22;43667;53.036;6.740;2022-10-17T04:05:00;12.20;99.90
57833;DHT22;43667;53.036;6.740;2022-10-17T04:07:26;12.20;99.90
57833;DHT22;43667;53.036;6.740;2022-10-17T04:09:51;12.20;99.90
57833;DHT22;43667;53.036;6.740;2022-10-17T04:12:17;12.30;99.90
57833;DHT22;43667;53.036;6.740;2022-10-17T04:14:43;12.20;99.90
57833;DHT22;43667;53.036;6.740;2022-10-17T04:17:08;12.20;99.90
57833;DHT22;43667;53.036;6.740;2022-10-17T04:19:34;12.30;99.90
57833;DHT22;43667;53.036;6.740;2022-10-17T04:22:00;12.30;99.90
57833;DHT22;43667;53.036;6.740;2022-10-17T04:24:27;12.30;99.90
57833;DHT22;43667;53.036;6.740;2022-10-17T04:26:53;12.30;99.90
57833;DHT22;43667;53.036;6.740;2022-10-17T04:29:19;12.30;99.90
57833;DHT22;43667;53.036;6.740;2022-10-17T04:31:46;12.30;99.90
57833;DHT22;43667;53.036;6.740;2022-10-17T04:34:12;12.30;99.90
57833;DHT22;43667;53.036;6.740;2022-10-17T04:36:39;12.30;99.90
57833;DHT22;43667;53.036;6.740;2022-10-17T04:39:04;12.40;99.90
57833;DHT22;43667;53.036;6.740;2022-10-17T04:41:30;12.40;99.90
57833;DHT22;43667;53.036;6.740;2022-10-17T04:43:56;12.40;99.90
57833;DHT22;43667;53.036;6.740;2022-10-17T04:46:21;12.40;99.90
57833;DHT22;43667;53.036;6.740;2022-10-17T04:48:47;12.40;99.90
57833;DHT22;43667;53.036;6.740;2022-10-17T04:51:15;12.50;99.90
57833;DHT22;43667;53.036;6.740;2022-10-17T04:53:42;12.50;99.90
57833;DHT22;43667;53.036;6.740;2022-10-17T04:56:14;12.50;99.90
57833;DHT22;43667;53.036;6.740;2022-10-17T04:58:40;12.50;99.90
57833;DHT22;43667;53.036;6.740;2022-10-17T05:01:08;12.50;99.90
57833;DHT22;43667;53.036;6.740;2022-10-17T05:03:34;12.50;99.90
57833;DHT22;43667;53.036;6.740;2022-10-17T05:06:09;12.50;99.90
57833;DHT22;43667;53.036;6.740;2022-10-17T05:08:35;12.50;99.90
57833;DHT22;43667;53.036;6.740;2022-10-17T05:11:01;12.50;99.90
57833;DHT22;43667;53.036;6.740;2022-10-17T05:13:26;12.50;99.90
57833;DHT22;43667;53.036;6.740;2022-10-17T05:15:52;12.50;99.90
57833;DHT22;43667;53.036;6.740;2022-10-17T05:18:18;12.50;99.90
57833;DHT22;43667;53.036;6.740;2022-10-17T05:20:43;12.50;99.90
57833;DHT22;43667;53.036;6.740;2022-10-17T05:23:09;12.50;99.90
57833;DHT22;43667;53.036;6.740;2022-10-17T05:25:34;12.50;99.90
57833;DHT22;43667;53.036;6.740;2022-10-17T05:28:00;12.50;99.90
57833;DHT22;43667;53.036;6.740;2022-10-17T05:30:25;12.50;99.90
57833;DHT22;43667;53.036;6.740;2022-10-17T05:32:54;12.50;99.90
57833;DHT22;43667;53.036;6.740;2022-10-17T05:35:20;12.50;99.90
57833;DHT22;43667;53.036;6.740;2022-10-17T05:37:47;12.50;99.90
57833;DHT22;43667;53.036;6.740;2022-10-17T05:40:12;12.50;99.90
57833;DHT22;43667;53.036;6.740;2022-10-17T05:42:38;12.50;99.90
57833;DHT22;43667;53.036;6.740;2022-10-17T05:45:04;12.50;99.90
57833;DHT22;43667;53.036;6.740;2022-10-17T05:47:30;12.50;99.90
57833;DHT22;43667;53.036;6.740;2022-10-17T05:49:55;12.50;99.90
57833;DHT22;43667;53.036;6.740;2022-10-17T05:52:21;12.50;99.90
57833;DHT22;43667;53.036;6.740;2022-10-17T05:54:47;12.50;99.90
57833;DHT22;43667;53.036;6.740;2022-10-17T05:57:12;12.50;99.90
57833;DHT22;43667;53.036;6.740;2022-10-17T05:59:38;12.40;99.90
57833;DHT22;43667;53.036;6.740;2022-10-17T06:02:03;12.40;99.90
57833;DHT22;43667;53.036;6.740;2022-10-17T06:04:29;12.40;99.90
57833;DHT22;43667;53.036;6.740;2022-10-17T06:06:54;12.40;99.90
57833;DHT22;43667;53.036;6.740;2022-10-17T06:09:21;12.40;99.90
57833;DHT22;43667;53.036;6.740;2022-10-17T06:11:47;12.40;99.90
57833;DHT22;43667;53.036;6.740;2022-10-17T06:14:12;12.40;99.90
57833;DHT22;43667;53.036;6.740;2022-10-17T06:16:38;12.50;99.90
57833;DHT22;43667;53.036;6.740;2022-10-17T06:19:04;12.50;99.90
57833;DHT22;43667;53.036;6.740;2022-10-17T06:21:30;12.60;99.90
57833;DHT22;43667;53.036;6.740;2022-10-17T06:23:58;12.60;99.90
57833;DHT22;43667;53.036;6.740;2022-10-17T06:26:24;12.60;99.90
57833;DHT22;43667;53.036;6.740;2022-10-17T06:28:50;12.70;99.90
57833;DHT22;43667;53.036;6.740;2022-10-17T06:31:16;12.80;99.90
57833;DHT22;43667;53.036;6.740;2022-10-17T06:33:42;12.80;99.90
57833;DHT22;43667;53.036;6.740;2022-10-17T06:36:12;12.90;99.90
57833;DHT22;43667;53.036;6.740;2022-10-17T06:38:38;13.00;99.90
57833;DHT22;43667;53.036;6.740;2022-10-17T06:41:11;13.10;99.90
57833;DHT22;43667;53.036;6.740;2022-10-17T06:43:38;13.20;99.90
57833;DHT22;43667;53.036;6.740;2022-10-17T06:46:04;13.30;99.90
57833;DHT22;43667;53.036;6.740;2022-10-17T06:48:30;13.40;99.90
57833;DHT22;43667;53.036;6.740;2022-10-17T06:51:00;13.60;99.90
57833;DHT22;43667;53.036;6.740;2022-10-17T06:53:29;13.70;99.90
57833;DHT22;43667;53.036;6.740;2022-10-17T06:55:55;13.70;99.90
57833;DHT22;43667;53.036;6.740;2022-10-17T06:58:26;13.80;99.90
57833;DHT22;43667;53.036;6.740;2022-10-17T07:01:00;13.80;99.90
57833;DHT22;43667;53.036;6.740;2022-10-17T07:03:27;13.90;99.90
57833;DHT22;43667;53.036;6.740;2022-10-17T07:05:53;13.90;99.90
57833;DHT22;43667;53.036;6.740;2022-10-17T07:08:19;14.00;99.90
57833;DHT22;43667;53.036;6.740;2022-10-17T07:10:45;14.00;99.90
57833;DHT22;43667;53.036;6.740;2022-10-17T07:13:11;14.10;99.90
57833;DHT22;43667;53.036;6.740;2022-10-17T07:15:37;14.10;99.90
57833;DHT22;43667;53.036;6.740;2022-10-17T07:18:03;14.20;99.90
57833;DHT22;43667;53.036;6.740;2022-10-17T07:20:29;14.30;99.90
57833;DHT22;43667;53.036;6.740;2022-10-17T07:22:54;14.40;99.90
57833;DHT22;43667;53.036;6.740;2022-10-17T07:25:20;14.50;99.90
57833;DHT22;43667;53.036;6.740;2022-10-17T07:27:48;14.60;99.90
57833;DHT22;43667;53.036;6.740;2022-10-17T07:30:13;14.60;99.90
57833;DHT22;43667;53.036;6.740;2022-10-17T07:32:40;14.70;99.90
57833;DHT22;43667;53.036;6.740;2022-10-17T07:35:06;14.80;99.90
57833;DHT22;43667;53.036;6.740;2022-10-17T07:37:32;14.90;99.90
57833;DHT22;43667;53.036;6.740;2022-10-17T07:39:57;15.00;99.90
57833;DHT22;43667;53.036;6.740;2022-10-17T07:42:23;15.00;99.90
57833;DHT22;43667;53.036;6.740;2022-10-17T07:44:49;15.10;99.90
57833;DHT22;43667;53.036;6.740;2022-10-17T07:47:15;15.10;99.90
57833;DHT22;43667;53.036;6.740;2022-10-17T07:49:41;15.20;99.90
57833;DHT22;43667;53.036;6.740;2022-10-17T07:52:09;15.30;99.90
57833;DHT22;43667;53.036;6.740;2022-10-17T07:54:36;15.30;99.90
57833;DHT22;43667;53.036;6.740;2022-10-17T07:57:01;15.40;99.90
57833;DHT22;43667;53.036;6.740;2022-10-17T07:59:27;15.50;99.90
57833;DHT22;43667;53.036;6.740;2022-10-17T08:01:55;15.50;99.90
57833;DHT22;43667;53.036;6.740;2022-10-17T08:04:21;15.50;99.90
57833;DHT22;43667;53.036;6.740;2022-10-17T08:06:48;15.60;99.90
57833;DHT22;43667;53.036;6.740;2022-10-17T08:09:14;15.60;99.90
57833;DHT22;43667;53.036;6.740;2022-10-17T08:11:40;15.60;99.90
57833;DHT22;43667;53.036;6.740;2022-10-17T08:14:08;15.80;99.90
57833;DHT22;43667;53.036;6.740;2022-10-17T08:16:34;15.80;99.90
57833;DHT22;43667;53.036;6.740;2022-10-17T08:19:00;15.90;99.90
57833;DHT22;43667;53.036;6.740;2022-10-17T08:21:26;16.00;99.90
57833;DHT22;43667;53.036;6.740;2022-10-17T08:23:52;16.10;99.90
57833;DHT22;43667;53.036;6.740;2022-10-17T08:26:18;16.20;99.90
57833;DHT22;43667;53.036;6.740;2022-10-17T08:28:44;16.20;99.90
57833;DHT22;43667;53.036;6.740;2022-10-17T08:31:15;16.30;99.90
57833;DHT22;43667;53.036;6.740;2022-10-17T08:33:45;16.30;99.90
57833;DHT22;43667;53.036;6.740;2022-10-17T08:36:13;16.30;99.90
57833;DHT22;43667;53.036;6.740;2022-10-17T08:38:40;16.40;99.90
57833;DHT22;43667;53.036;6.740;2022-10-17T08:41:35;16.40;99.90
57833;DHT22;43667;53.036;6.740;2022-10-17T08:44:26;16.40;99.90
57833;DHT22;43667;53.036;6.740;2022-10-17T08:46:58;16.40;99.90
57833;DHT22;43667;53.036;6.740;2022-10-17T08:49:38;16.40;99.90
57833;DHT22;43667;53.036;6.740;2022-10-17T08:54:58;16.40;99.90
57833;DHT22;43667;53.036;6.740;2022-10-17T08:57:24;16.40;99.90
57833;DHT22;43667;53.036;6.740;2022-10-17T08:59:51;16.40;99.90
57833;DHT22;43667;53.036;6.740;2022-10-17T09:02:38;16.50;99.90
57833;DHT22;43667;53.036;6.740;2022-10-17T09:11:10;16.60;99.90
57833;DHT22;43667;53.036;6.740;2022-10-17T09:14:00;16.60;99.90
57833;DHT22;43667;53.036;6.740;2022-10-17T09:16:54;16.60;99.90
57833;DHT22;43667;53.036;6.740;2022-10-17T09:19:31;16.60;99.90
57833;DHT22;43667;53.036;6.740;2022-10-17T09:22:02;16.60;99.90
57833;DHT22;43667;53.036;6.740;2022-10-17T09:24:44;16.70;99.90
57833;DHT22;43667;53.036;6.740;2022-10-17T09:27:27;16.70;99.90
57833;DHT22;43667;53.036;6.740;2022-10-17T09:30:24;16.70;99.90
57833;DHT22;43667;53.036;6.740;2022-10-17T09:32:50;16.70;99.90
57833;DHT22;43667;53.036;6.740;2022-10-17T09:35:17;16.70;99.90
57833;DHT22;43667;53.036;6.740;2022-10-17T09:37:44;16.70;99.90
57833;DHT22;43667;53.036;6.740;2022-10-17T09:40:23;16.70;99.90
57833;DHT22;43667;53.036;6.740;2022-10-17T09:42:49;16.80;99.90
57833;DHT22;43667;53.036;6.740;2022-10-17T09:45:19;16.80;99.90
57833;DHT22;43667;53.036;6.740;2022-10-17T09:48:09;16.80;99.90
57833;DHT22;43667;53.036;6.740;2022-10-17T09:50:36;16.80;99.90
57833;DHT22;43667;53.036;6.740;2022-10-17T09:53:11;16.80;99.90
57833;DHT22;43667;53.036;6.740;2022-10-17T09:55:42;16.80;99.90
57833;DHT22;43667;53.036;6.740;2022-10-17T09:58:09;16.70;99.90
57833;DHT22;43667;53.036;6.740;2022-10-17T10:00:38;16.70;99.90
57833;DHT22;43667;53.036;6.740;2022-10-17T10:03:15;16.80;99.90
57833;DHT22;43667;53.036;6.740;2022-10-17T10:05:44;16.70;99.90
57833;DHT22;43667;53.036;6.740;2022-10-17T10:08:24;16.70;99.90
57833;DHT22;43667;53.036;6.740;2022-10-17T10:10:57;16.70;99.90
57833;DHT22;43667;53.036;6.740;2022-10-17T10:13:26;16.70;99.90
57833;DHT22;43667;53.036;6.740;2022-10-17T10:15:52;16.70;99.90
57833;DHT22;43667;53.036;6.740;2022-10-17T10:23:29;16.50;99.90
57833;DHT22;43667;53.036;6.740;2022-10-17T10:28:25;16.50;99.90
57833;DHT22;43667;53.036;6.740;2022-10-17T10:30:52;16.40;99.90
57833;DHT22;43667;53.036;6.740;2022-10-17T10:33:20;16.40;99.90
57833;DHT22;43667;53.036;6.740;2022-10-17T10:36:04;16.40;99.90
57833;DHT22;43667;53.036;6.740;2022-10-17T10:38:32;16.40;99.90
57833;DHT22;43667;53.036;6.740;2022-10-17T10:41:07;16.40;99.90
57833;DHT22;43667;53.036;6.740;2022-10-17T10:43:45;16.40;99.90
57833;DHT22;43667;53.036;6.740;2022-10-17T10:46:27;16.40;99.90
57833;DHT22;43667;53.036;6.740;2022-10-17T10:51:28;16.40;99.90
57833;DHT22;43667;53.036;6.740;2022-10-17T10:54:33;16.30;99.90
57833;DHT22;43667;53.036;6.740;2022-10-17T10:57:00;16.30;99.90
57833;DHT22;43667;53.036;6.740;2022-10-17T11:00:03;16.30;99.90
57833;DHT22;43667;53.036;6.740;2022-10-17T11:05:24;16.30;99.90
57833;DHT22;43667;53.036;6.740;2022-10-17T11:08:05;16.30;99.90
57833;DHT22;43667;53.036;6.740;2022-10-17T11:13:24;16.30;99.90
57833;DHT22;43667;53.036;6.740;2022-10-17T12:49:45;17.10;99.90
57833;DHT22;43667;53.036;6.740;2022-10-17T12:54:42;17.10;99.90
57833;DHT22;43667;53.036;6.740;2022-10-17T12:57:40;17.10;99.90
57833;DHT22;43667;53.036;6.740;2022-10-17T13:00:18;17.10;99.90
57833;DHT22;43667;53.036;6.740;2022-10-17T13:02:45;17.00;99.90
57833;DHT22;43667;53.036;6.740;2022-10-17T13:05:29;17.00;99.90
57833;DHT22;43667;53.036;6.740;2022-10-17T13:07:58;17.00;99.90
57833;DHT22;43667;53.036;6.740;2022-10-17T13:10:27;16.90;99.90
57833;DHT22;43667;53.036;6.740;2022-10-17T13:13:03;16.90;99.90
57833;DHT22;43667;53.036;6.740;2022-10-17T13:15:29;16.90;99.90
57833;DHT22;43667;53.036;6.740;2022-10-17T13:17:58;16.80;99.90
57833;DHT22;43667;53.036;6.740;2022-10-17T13:20:25;16.80;99.90
57833;DHT22;43667;53.036;6.740;2022-10-17T13:22:53;16.80;99.90
57833;DHT22;43667;53.036;6.740;2022-10-17T13:25:20;16.70;99.90
57833;DHT22;43667;53.036;6.740;2022-10-17T13:27:47;16.70;99.90
57833;DHT22;43667;53.036;6.740;2022-10-17T13:30:28;16.60;99.90
57833;DHT22;43667;53.036;6.740;2022-10-17T13:32:54;16.50;99.90
57833;DHT22;43667;53.036;6.740;2022-10-17T13:35:35;16.50;99.90
57833;DHT22;43667;53.036;6.740;2022-10-17T13:38:05;16.50;99.90
57833;DHT22;43667;53.036;6.740;2022-10-17T13:40:40;16.40;99.90
57833;DHT22;43667;53.036;6.740;2022-10-17T13:43:15;16.30;99.90
57833;DHT22;43667;53.036;6.740;2022-10-17T13:46:06;16.30;99.90
57833;DHT22;43667;53.036;6.740;2022-10-17T13:48:35;16.20;99.90
57833;DHT22;43667;53.036;6.740;2022-10-17T13:51:03;16.20;99.90
57833;DHT22;43667;53.036;6.740;2022-10-17T13:53:35;16.10;99.90
57833;DHT22;43667;53.036;6.740;2022-10-17T13:56:03;16.10;99.90
57833;DHT22;43667;53.036;6.740;2022-10-17T13:58:41;16.10;99.90
57833;DHT22;43667;53.036;6.740;2022-10-17T14:01:07;16.10;99.90
57833;DHT22;43667;53.036;6.740;2022-10-17T14:03:33;16.00;99.90
57833;DHT22;43667;53.036;6.740;2022-10-17T14:06:40;16.10;99.90
57833;DHT22;43667;53.036;6.740;2022-10-17T14:09:17;16.00;99.90
57833;DHT22;43667;53.036;6.740;2022-10-17T14:11:57;16.00;99.90
57833;DHT22;43667;53.036;6.740;2022-10-17T14:14:24;16.00;99.90
57833;DHT22;43667;53.036;6.740;2022-10-17T14:16:50;16.00;99.90
57833;DHT22;43667;53.036;6.740;2022-10-17T14:19:29;16.00;99.90
57833;DHT22;43667;53.036;6.740;2022-10-17T14:22:23;15.90;99.90
57833;DHT22;43667;53.036;6.740;2022-10-17T14:24:50;15.90;99.90
57833;DHT22;43667;53.036;6.740;2022-10-17T14:27:29;15.90;99.90
57833;DHT22;43667;53.036;6.740;2022-10-17T14:29:57;15.90;99.90
57833;DHT22;43667;53.036;6.740;2022-10-17T14:32:33;15.90;99.90
57833;DHT22;43667;53.036;6.740;2022-10-17T14:35:02;15.90;99.90
57833;DHT22;43667;53.036;6.740;2022-10-17T14:37:46;15.90;99.90
57833;DHT22;43667;53.036;6.740;2022-10-17T14:40:22;15.90;99.90
57833;DHT22;43667;53.036;6.740;2022-10-17T14:42:49;15.80;99.90
57833;DHT22;43667;53.036;6.740;2022-10-17T14:45:36;15.80;99.90
57833;DHT22;43667;53.036;6.740;2022-10-17T14:48:20;15.90;99.90
57833;DHT22;43667;53.036;6.740;2022-10-17T14:53:35;15.80;99.90
57833;DHT22;43667;53.036;6.740;2022-10-17T14:56:03;15.80;99.90
57833;DHT22;43667;53.036;6.740;2022-10-17T14:58:31;15.80;99.90
57833;DHT22;43667;53.036;6.740;2022-10-17T15:00:59;15.70;99.90
57833;DHT22;43667;53.036;6.740;2022-10-17T15:03:25;15.70;99.90
57833;DHT22;43667;53.036;6.740;2022-10-17T15:05:52;15.70;99.90
57833;DHT22;43667;53.036;6.740;2022-10-17T15:08:20;15.70;99.90
57833;DHT22;43667;53.036;6.740;2022-10-17T15:10:48;15.70;99.90
57833;DHT22;43667;53.036;6.740;2022-10-17T15:13:14;15.60;99.90
57833;DHT22;43667;53.036;6.740;2022-10-17T15:15:41;15.60;99.90
57833;DHT22;43667;53.036;6.740;2022-10-17T15:18:09;15.60;99.90
57833;DHT22;43667;53.036;6.740;2022-10-17T15:20:35;15.50;99.90
57833;DHT22;43667;53.036;6.740;2022-10-17T15:23:01;15.50;99.90
57833;DHT22;43667;53.036;6.740;2022-10-17T15:25:28;15.50;99.90
57833;DHT22;43667;53.036;6.740;2022-10-17T15:27:55;15.50;99.90
57833;DHT22;43667;53.036;6.740;2022-10-17T15:30:25;15.60;99.90
57833;DHT22;43667;53.036;6.740;2022-10-17T15:32:51;15.60;99.90
57833;DHT22;43667;53.036;6.740;2022-10-17T15:35:18;15.60;99.90
57833;DHT22;43667;53.036;6.740;2022-10-17T15:37:44;15.60;99.90
57833;DHT22;43667;53.036;6.740;2022-10-17T15:40:25;15.60;99.90
57833;DHT22;43667;53.036;6.740;2022-10-17T15:42:52;15.60;99.90
57833;DHT22;43667;53.036;6.740;2022-10-17T15:45:19;15.60;99.90
57833;DHT22;43667;53.036;6.740;2022-10-17T15:47:52;15.50;99.90
57833;DHT22;43667;53.036;6.740;2022-10-17T15:50:18;15.50;99.90
57833;DHT22;43667;53.036;6.740;2022-10-17T15:52:44;15.40;99.90
57833;DHT22;43667;53.036;6.740;2022-10-17T15:55:11;15.40;99.90
57833;DHT22;43667;53.036;6.740;2022-10-17T15:57:40;15.30;99.90
57833;DHT22;43667;53.036;6.740;2022-10-17T16:00:14;15.30;99.90
57833;DHT22;43667;53.036;6.740;2022-10-17T16:02:41;15.30;99.90
57833;DHT22;43667;53.036;6.740;2022-10-17T16:05:21;15.20;99.90
57833;DHT22;43667;53.036;6.740;2022-10-17T16:07:48;15.20;99.90
57833;DHT22;43667;53.036;6.740;2022-10-17T16:10:14;15.10;99.90
57833;DHT22;43667;53.036;6.740;2022-10-17T16:12:40;15.10;99.90
57833;DHT22;43667;53.036;6.740;2022-10-17T16:15:18;15.00;99.90
57833;DHT22;43667;53.036;6.740;2022-10-17T16:17:44;15.00;99.90
57833;DHT22;43667;53.036;6.740;2022-10-17T16:20:11;14.90;99.90
57833;DHT22;43667;53.036;6.740;2022-10-17T16:22:37;14.90;99.90
57833;DHT22;43667;53.036;6.740;2022-10-17T16:25:06;14.90;99.90
57833;DHT22;43667;53.036;6.740;2022-10-17T16:27:37;14.80;99.90
57833;DHT22;43667;53.036;6.740;2022-10-17T16:30:05;14.80;99.90
57833;DHT22;43667;53.036;6.740;2022-10-17T16:32:31;14.70;99.90
57833;DHT22;43667;53.036;6.740;2022-10-17T16:34:56;14.70;99.90
57833;DHT22;43667;53.036;6.740;2022-10-17T16:37:24;14.60;99.90
57833;DHT22;43667;53.036;6.740;2022-10-17T16:39:50;14.60;99.90
57833;DHT22;43667;53.036;6.740;2022-10-17T16:42:18;14.60;99.90
57833;DHT22;43667;53.036;6.740;2022-10-17T16:44:45;14.50;99.90
57833;DHT22;43667;53.036;6.740;2022-10-17T16:47:10;14.50;99.90
57833;DHT22;43667;53.036;6.740;2022-10-17T16:49:36;14.40;99.90
57833;DHT22;43667;53.036;6.740;2022-10-17T16:52:02;14.40;99.90
57833;DHT22;43667;53.036;6.740;2022-10-17T16:54:28;14.40;99.90
57833;DHT22;43667;53.036;6.740;2022-10-17T16:56:54;14.40;99.90
57833;DHT22;43667;53.036;6.740;2022-10-17T16:59:22;14.30;99.90
57833;DHT22;43667;53.036;6.740;2022-10-17T17:01:48;14.30;99.90
57833;DHT22;43667;53.036;6.740;2022-10-17T17:04:14;14.30;99.90
57833;DHT22;43667;53.036;6.740;2022-10-17T17:06:40;14.20;99.90
57833;DHT22;43667;53.036;6.740;2022-10-17T17:09:06;14.20;99.90
57833;DHT22;43667;53.036;6.740;2022-10-17T17:11:34;14.20;99.90
57833;DHT22;43667;53.036;6.740;2022-10-17T17:14:00;14.20;99.90
57833;DHT22;43667;53.036;6.740;2022-10-17T17:16:27;14.10;99.90
57833;DHT22;43667;53.036;6.740;2022-10-17T17:19:02;14.20;99.90
57833;DHT22;43667;53.036;6.740;2022-10-17T17:21:29;14.10;99.90
57833;DHT22;43667;53.036;6.740;2022-10-17T17:23:57;14.20;99.90
57833;DHT22;43667;53.036;6.740;2022-10-17T17:26:24;14.10;99.90
57833;DHT22;43667;53.036;6.740;2022-10-17T17:28:50;14.10;99.90
57833;DHT22;43667;53.036;6.740;2022-10-17T17:31:22;14.10;99.90
57833;DHT22;43667;53.036;6.740;2022-10-17T17:33:49;14.10;99.90
57833;DHT22;43667;53.036;6.740;2022-10-17T17:36:27;14.10;99.90
57833;DHT22;43667;53.036;6.740;2022-10-17T17:38:55;14.10;99.90
57833;DHT22;43667;53.036;6.740;2022-10-17T17:41:21;14.00;99.90
57833;DHT22;43667;53.036;6.740;2022-10-17T17:43:48;14.00;99.90
57833;DHT22;43667;53.036;6.740;2022-10-17T17:46:18;14.00;99.90
57833;DHT22;43667;53.036;6.740;2022-10-17T17:48:46;14.00;99.90
57833;DHT22;43667;53.036;6.740;2022-10-17T17:51:13;14.00;99.90
57833;DHT22;43667;53.036;6.740;2022-10-17T17:53:39;14.00;99.90
57833;DHT22;43667;53.036;6.740;2022-10-17T17:56:14;14.00;99.90
57833;DHT22;43667;53.036;6.740;2022-10-17T17:58:40;14.00;99.90
57833;DHT22;43667;53.036;6.740;2022-10-17T18:01:12;14.00;99.90
57833;DHT22;43667;53.036;6.740;2022-10-17T18:03:39;14.00;99.90
57833;DHT22;43667;53.036;6.740;2022-10-17T18:06:06;14.10;99.90
57833;DHT22;43667;53.036;6.740;2022-10-17T18:08:32;14.10;99.90
57833;DHT22;43667;53.036;6.740;2022-10-17T18:10:57;14.10;99.90
57833;DHT22;43667;53.036;6.740;2022-10-17T18:13:23;14.10;99.90
57833;DHT22;43667;53.036;6.740;2022-10-17T18:15:49;14.10;99.90